sensor_id;sensor_type;location;lat;lon;timestamp;temperature;humidity
37642;DHT22;23486;51.956;5.888;2023-03-19T00:02:21;12.10;99.90
37642;DHT22;23486;51.956;5.888;2023-03-19T00:04:46;12.00;99.90
37642;DHT22;23486;51.956;5.888;2023-03-19T00:07:13;12.00;99.90
37642;DHT22;23486;51.956;5.888;2023-03-19T00:09:39;12.00;99.90
37642;DHT22;23486;51.956;5.888;2023-03-19T00:12:05;11.90;99.90
37642;DHT22;23486;51.956;5.888;2023-03-19T00:14:34;11.90;99.90
37642;DHT22;23486;51.956;5.888;2023-03-19T00:16:59;11.90;99.90
37642;DHT22;23486;51.956;5.888;2023-03-19T00:19:25;11.80;99.90
37642;DHT22;23486;51.956;5.888;2023-03-19T00:21:51;11.80;99.90
37642;DHT22;23486;51.956;5.888;2023-03-19T00:24:16;11.80;99.90
37642;DHT22;23486;51.956;5.888;2023-03-19T00:26:42;11.80;99.90
37642;DHT22;23486;51.956;5.888;2023-03-19T00:29:08;11.70;99.90
37642;DHT22;23486;51.956;5.888;2023-03-19T00:31:35;11.70;99.90
37642;DHT22;23486;51.956;5.888;2023-03-19T00:34:01;11.70;99.90
37642;DHT22;23486;51.956;5.888;2023-03-19T00:36:27;11.70;99.90
37642;DHT22;23486;51.956;5.888;2023-03-19T00:38:53;11.60;99.90
37642;DHT22;23486;51.956;5.888;2023-03-19T00:41:19;11.50;99.90
37642;DHT22;23486;51.956;5.888;2023-03-19T00:43:46;11.60;99.90
37642;DHT22;23486;51.956;5.888;2023-03-19T00:46:12;11.60;99.90
37642;DHT22;23486;51.956;5.888;2023-03-19T00:48:38;11.60;99.90
37642;DHT22;23486;51.956;5.888;2023-03-19T00:51:08;11.60;99.90
37642;DHT22;23486;51.956;5.888;2023-03-19T00:53:42;11.50;99.90
37642;DHT22;23486;51.956;5.888;2023-03-19T00:56:10;11.50;99.90
37642;DHT22;23486;51.956;5.888;2023-03-19T00:58:36;11.50;99.90
37642;DHT22;23486;51.956;5.888;2023-03-19T01:01:09;11.50;99.90
37642;DHT22;23486;51.956;5.888;2023-03-19T01:03:36;11.50;99.90
37642;DHT22;23486;51.956;5.888;2023-03-19T01:06:04;11.50;99.90
37642;DHT22;23486;51.956;5.888;2023-03-19T01:08:31;11.50;99.90
37642;DHT22;23486;51.956;5.888;2023-03-19T01:11:04;11.50;99.90
37642;DHT22;23486;51.956;5.888;2023-03-19T01:13:30;11.50;99.90
37642;DHT22;23486;51.956;5.888;2023-03-19T01:15:56;11.50;99.90
37642;DHT22;23486;51.956;5.888;2023-03-19T01:18:22;11.50;99.90
37642;DHT22;23486;51.956;5.888;2023-03-19T01:20:47;11.50;99.90
37642;DHT22;23486;51.956;5.888;2023-03-19T01:23:13;11.40;99.90
37642;DHT22;23486;51.956;5.888;2023-03-19T01:25:41;11.40;99.90
37642;DHT22;23486;51.956;5.888;2023-03-19T01:28:07;11.40;99.90
37642;DHT22;23486;51.956;5.888;2023-03-19T01:30:32;11.30;99.90
37642;DHT22;23486;51.956;5.888;2023-03-19T01:32:58;11.30;99.90
37642;DHT22;23486;51.956;5.888;2023-03-19T01:35:23;11.30;99.90
37642;DHT22;23486;51.956;5.888;2023-03-19T01:37:49;11.20;99.90
37642;DHT22;23486;51.956;5.888;2023-03-19T01:40:15;11.20;99.90
37642;DHT22;23486;51.956;5.888;2023-03-19T01:42:52;11.10;99.90
37642;DHT22;23486;51.956;5.888;2023-03-19T01:45:36;11.00;99.90
37642;DHT22;23486;51.956;5.888;2023-03-19T01:48:03;10.90;99.90
37642;DHT22;23486;51.956;5.888;2023-03-19T01:50:36;10.90;99.90
37642;DHT22;23486;51.956;5.888;2023-03-19T01:53:03;10.80;99.90
37642;DHT22;23486;51.956;5.888;2023-03-19T01:55:33;10.80;99.90
37642;DHT22;23486;51.956;5.888;2023-03-19T01:57:58;10.80;99.90
37642;DHT22;23486;51.956;5.888;2023-03-19T02:00:26;10.80;99.90
37642;DHT22;23486;51.956;5.888;2023-03-19T02:02:53;10.80;99.90
37642;DHT22;23486;51.956;5.888;2023-03-19T02:05:22;10.80;99.90
37642;DHT22;23486;51.956;5.888;2023-03-19T02:08:02;10.70;99.90
37642;DHT22;23486;51.956;5.888;2023-03-19T02:10:29;10.70;99.90
37642;DHT22;23486;51.956;5.888;2023-03-19T02:12:56;10.70;99.90
37642;DHT22;23486;51.956;5.888;2023-03-19T02:15:21;10.80;99.90
37642;DHT22;23486;51.956;5.888;2023-03-19T02:17:47;10.80;99.90
37642;DHT22;23486;51.956;5.888;2023-03-19T02:28:13;10.90;99.90
37642;DHT22;23486;51.956;5.888;2023-03-19T02:30:42;11.00;99.90
37642;DHT22;23486;51.956;5.888;2023-03-19T02:33:17;11.00;99.90
37642;DHT22;23486;51.956;5.888;2023-03-19T02:35:47;11.00;99.90
37642;DHT22;23486;51.956;5.888;2023-03-19T02:38:14;11.00;99.90
37642;DHT22;23486;51.956;5.888;2023-03-19T02:40:44;11.00;99.90
37642;DHT22;23486;51.956;5.888;2023-03-19T02:43:12;11.00;99.90
37642;DHT22;23486;51.956;5.888;2023-03-19T02:45:38;11.00;99.90
37642;DHT22;23486;51.956;5.888;2023-03-19T02:48:04;11.00;99.90
37642;DHT22;23486;51.956;5.888;2023-03-19T02:50:29;11.00;99.90
37642;DHT22;23486;51.956;5.888;2023-03-19T02:52:55;11.00;99.90
37642;DHT22;23486;51.956;5.888;2023-03-19T02:55:21;11.00;99.90
37642;DHT22;23486;51.956;5.888;2023-03-19T02:57:46;11.00;99.90
37642;DHT22;23486;51.956;5.888;2023-03-19T03:00:12;11.00;99.90
37642;DHT22;23486;51.956;5.888;2023-03-19T03:02:38;11.00;99.90
37642;DHT22;23486;51.956;5.888;2023-03-19T03:05:05;11.00;99.90
37642;DHT22;23486;51.956;5.888;2023-03-19T03:07:31;11.00;99.90
37642;DHT22;23486;51.956;5.888;2023-03-19T03:09:57;11.00;99.90
37642;DHT22;23486;51.956;5.888;2023-03-19T03:12:22;11.00;99.90
37642;DHT22;23486;51.956;5.888;2023-03-19T03:14:48;11.10;99.90
37642;DHT22;23486;51.956;5.888;2023-03-19T03:17:14;11.10;99.90
37642;DHT22;23486;51.956;5.888;2023-03-19T03:19:39;11.10;99.90
37642;DHT22;23486;51.956;5.888;2023-03-19T03:22:05;11.10;99.90
37642;DHT22;23486;51.956;5.888;2023-03-19T03:24:31;11.00;99.90
37642;DHT22;23486;51.956;5.888;2023-03-19T03:26:56;11.00;99.90
37642;DHT22;23486;51.956;5.888;2023-03-19T03:29:24;11.00;99.90
37642;DHT22;23486;51.956;5.888;2023-03-19T03:31:49;11.00;99.90
37642;DHT22;23486;51.956;5.888;2023-03-19T03:34:15;11.00;99.90
37642;DHT22;23486;51.956;5.888;2023-03-19T03:36:41;11.00;99.90
37642;DHT22;23486;51.956;5.888;2023-03-19T03:39:06;11.00;99.90
37642;DHT22;23486;51.956;5.888;2023-03-19T03:41:32;11.00;99.90
37642;DHT22;23486;51.956;5.888;2023-03-19T03:43:58;10.90;99.90
37642;DHT22;23486;51.956;5.888;2023-03-19T03:46:23;10.90;99.90
37642;DHT22;23486;51.956;5.888;2023-03-19T03:48:49;10.90;99.90
37642;DHT22;23486;51.956;5.888;2023-03-19T03:51:17;10.90;99.90
37642;DHT22;23486;51.956;5.888;2023-03-19T03:53:42;10.90;99.90
37642;DHT22;23486;51.956;5.888;2023-03-19T03:56:08;10.80;99.90
37642;DHT22;23486;51.956;5.888;2023-03-19T03:58:33;10.80;99.90
37642;DHT22;23486;51.956;5.888;2023-03-19T04:00:59;10.80;99.90
37642;DHT22;23486;51.956;5.888;2023-03-19T04:03:25;10.80;99.90
37642;DHT22;23486;51.956;5.888;2023-03-19T04:05:51;10.80;99.90
37642;DHT22;23486;51.956;5.888;2023-03-19T04:08:17;10.80;99.90
37642;DHT22;23486;51.956;5.888;2023-03-19T04:10:43;10.70;99.90
37642;DHT22;23486;51.956;5.888;2023-03-19T04:13:09;10.70;99.90
37642;DHT22;23486;51.956;5.888;2023-03-19T04:15:35;10.70;99.90
37642;DHT22;23486;51.956;5.888;2023-03-19T04:18:02;10.60;99.90
37642;DHT22;23486;51.956;5.888;2023-03-19T04:20:28;10.60;99.90
37642;DHT22;23486;51.956;5.888;2023-03-19T04:22:54;10.50;99.90
37642;DHT22;23486;51.956;5.888;2023-03-19T04:25:20;10.50;99.90
37642;DHT22;23486;51.956;5.888;2023-03-19T04:27:46;10.40;99.90
37642;DHT22;23486;51.956;5.888;2023-03-19T04:30:12;10.30;99.90
37642;DHT22;23486;51.956;5.888;2023-03-19T04:32:46;10.30;99.90
37642;DHT22;23486;51.956;5.888;2023-03-19T04:35:11;10.20;99.90
37642;DHT22;23486;51.956;5.888;2023-03-19T04:37:38;10.10;99.90
37642;DHT22;23486;51.956;5.888;2023-03-19T04:40:04;10.00;99.90
37642;DHT22;23486;51.956;5.888;2023-03-19T04:42:30;10.00;99.90
37642;DHT22;23486;51.956;5.888;2023-03-19T04:44:55;9.80;99.90
37642;DHT22;23486;51.956;5.888;2023-03-19T04:47:21;9.80;99.90
37642;DHT22;23486;51.956;5.888;2023-03-19T04:49:47;9.80;99.90
37642;DHT22;23486;51.956;5.888;2023-03-19T04:52:13;9.80;99.90
37642;DHT22;23486;51.956;5.888;2023-03-19T04:54:39;9.90;99.90
37642;DHT22;23486;51.956;5.888;2023-03-19T04:57:07;9.90;99.90
37642;DHT22;23486;51.956;5.888;2023-03-19T04:59:36;10.00;99.90
37642;DHT22;23486;51.956;5.888;2023-03-19T05:02:01;10.00;99.90
37642;DHT22;23486;51.956;5.888;2023-03-19T05:04:27;10.10;99.90
37642;DHT22;23486;51.956;5.888;2023-03-19T05:06:52;10.10;99.90
37642;DHT22;23486;51.956;5.888;2023-03-19T05:09:18;10.20;99.90
37642;DHT22;23486;51.956;5.888;2023-03-19T05:11:47;10.20;99.90
37642;DHT22;23486;51.956;5.888;2023-03-19T05:14:25;10.20;99.90
37642;DHT22;23486;51.956;5.888;2023-03-19T05:16:50;10.20;99.90
37642;DHT22;23486;51.956;5.888;2023-03-19T05:19:17;10.30;99.90
37642;DHT22;23486;51.956;5.888;2023-03-19T05:21:42;10.30;99.90
37642;DHT22;23486;51.956;5.888;2023-03-19T05:24:08;10.30;99.90
37642;DHT22;23486;51.956;5.888;2023-03-19T05:26:34;10.40;99.90
37642;DHT22;23486;51.956;5.888;2023-03-19T05:28:59;10.40;99.90
37642;DHT22;23486;51.956;5.888;2023-03-19T05:31:25;10.40;99.90
37642;DHT22;23486;51.956;5.888;2023-03-19T05:33:50;10.40;99.90
37642;DHT22;23486;51.956;5.888;2023-03-19T05:36:16;10.40;99.90
37642;DHT22;23486;51.956;5.888;2023-03-19T05:38:43;10.40;99.90
37642;DHT22;23486;51.956;5.888;2023-03-19T05:41:08;10.50;99.90
37642;DHT22;23486;51.956;5.888;2023-03-19T05:43:34;10.50;99.90
37642;DHT22;23486;51.956;5.888;2023-03-19T05:46:00;10.50;99.90
37642;DHT22;23486;51.956;5.888;2023-03-19T05:48:26;10.50;99.90
37642;DHT22;23486;51.956;5.888;2023-03-19T05:50:51;10.50;99.90
37642;DHT22;23486;51.956;5.888;2023-03-19T05:53:18;10.60;99.90
37642;DHT22;23486;51.956;5.888;2023-03-19T05:55:43;10.50;99.90
37642;DHT22;23486;51.956;5.888;2023-03-19T05:58:09;10.60;99.90
37642;DHT22;23486;51.956;5.888;2023-03-19T06:00:34;10.50;99.90
37642;DHT22;23486;51.956;5.888;2023-03-19T06:03:01;10.50;99.90
37642;DHT22;23486;51.956;5.888;2023-03-19T06:05:27;10.50;99.90
37642;DHT22;23486;51.956;5.888;2023-03-19T06:07:53;10.60;99.90
37642;DHT22;23486;51.956;5.888;2023-03-19T06:10:19;10.50;99.90
37642;DHT22;23486;51.956;5.888;2023-03-19T06:12:44;10.50;99.90
37642;DHT22;23486;51.956;5.888;2023-03-19T06:15:11;10.50;99.90
37642;DHT22;23486;51.956;5.888;2023-03-19T06:17:36;10.50;99.90
37642;DHT22;23486;51.956;5.888;2023-03-19T06:20:02;10.50;99.90
37642;DHT22;23486;51.956;5.888;2023-03-19T06:22:28;10.50;99.90
37642;DHT22;23486;51.956;5.888;2023-03-19T06:24:53;10.50;99.90
37642;DHT22;23486;51.956;5.888;2023-03-19T06:27:19;10.60;99.90
37642;DHT22;23486;51.956;5.888;2023-03-19T06:29:44;10.70;99.90
37642;DHT22;23486;51.956;5.888;2023-03-19T06:32:11;10.60;99.90
37642;DHT22;23486;51.956;5.888;2023-03-19T06:34:37;10.70;99.90
37642;DHT22;23486;51.956;5.888;2023-03-19T06:37:02;10.70;99.90
37642;DHT22;23486;51.956;5.888;2023-03-19T06:39:28;10.70;99.90
37642;DHT22;23486;51.956;5.888;2023-03-19T06:41:53;10.70;99.90
37642;DHT22;23486;51.956;5.888;2023-03-19T06:44:19;10.80;99.90
37642;DHT22;23486;51.956;5.888;2023-03-19T06:46:47;10.80;99.90
37642;DHT22;23486;51.956;5.888;2023-03-19T06:49:13;10.80;99.90
37642;DHT22;23486;51.956;5.888;2023-03-19T06:51:39;10.80;99.90
37642;DHT22;23486;51.956;5.888;2023-03-19T06:54:05;10.80;99.90
37642;DHT22;23486;51.956;5.888;2023-03-19T06:56:31;10.80;99.90
37642;DHT22;23486;51.956;5.888;2023-03-19T06:58:56;10.90;99.90
37642;DHT22;23486;51.956;5.888;2023-03-19T07:01:22;10.90;99.90
37642;DHT22;23486;51.956;5.888;2023-03-19T07:03:48;10.90;99.90
37642;DHT22;23486;51.956;5.888;2023-03-19T07:06:13;11.00;99.90
37642;DHT22;23486;51.956;5.888;2023-03-19T07:08:39;10.90;99.90
37642;DHT22;23486;51.956;5.888;2023-03-19T07:11:10;11.00;99.90
37642;DHT22;23486;51.956;5.888;2023-03-19T07:13:36;11.10;99.90
37642;DHT22;23486;51.956;5.888;2023-03-19T07:16:08;11.10;99.90
37642;DHT22;23486;51.956;5.888;2023-03-19T07:18:34;11.10;99.90
37642;DHT22;23486;51.956;5.888;2023-03-19T07:21:00;11.10;99.90
37642;DHT22;23486;51.956;5.888;2023-03-19T07:23:25;11.20;99.90
37642;DHT22;23486;51.956;5.888;2023-03-19T07:25:51;11.30;99.90
37642;DHT22;23486;51.956;5.888;2023-03-19T07:28:17;11.30;99.90
37642;DHT22;23486;51.956;5.888;2023-03-19T07:30:42;11.20;99.90
37642;DHT22;23486;51.956;5.888;2023-03-19T07:33:08;11.20;99.90
37642;DHT22;23486;51.956;5.888;2023-03-19T07:35:34;11.10;99.90
37642;DHT22;23486;51.956;5.888;2023-03-19T07:38:00;11.20;99.90
37642;DHT22;23486;51.956;5.888;2023-03-19T07:40:27;11.20;99.90
37642;DHT22;23486;51.956;5.888;2023-03-19T07:42:53;11.30;99.90
37642;DHT22;23486;51.956;5.888;2023-03-19T07:45:18;11.40;99.90
37642;DHT22;23486;51.956;5.888;2023-03-19T07:47:44;11.40;99.90
37642;DHT22;23486;51.956;5.888;2023-03-19T07:50:10;11.30;99.90
37642;DHT22;23486;51.956;5.888;2023-03-19T07:52:35;11.40;99.90
37642;DHT22;23486;51.956;5.888;2023-03-19T07:55:01;11.40;99.90
37642;DHT22;23486;51.956;5.888;2023-03-19T07:57:27;11.50;99.90
37642;DHT22;23486;51.956;5.888;2023-03-19T07:59:53;11.50;99.90
37642;DHT22;23486;51.956;5.888;2023-03-19T08:02:18;11.60;99.90
37642;DHT22;23486;51.956;5.888;2023-03-19T08:04:44;11.50;99.90
37642;DHT22;23486;51.956;5.888;2023-03-19T08:07:10;11.60;99.90
37642;DHT22;23486;51.956;5.888;2023-03-19T08:09:37;11.60;99.90
37642;DHT22;23486;51.956;5.888;2023-03-19T08:12:04;11.60;99.90
37642;DHT22;23486;51.956;5.888;2023-03-19T08:14:31;11.60;99.90
37642;DHT22;23486;51.956;5.888;2023-03-19T08:16:57;11.70;99.90
37642;DHT22;23486;51.956;5.888;2023-03-19T08:19:22;11.70;99.90
37642;DHT22;23486;51.956;5.888;2023-03-19T08:21:48;11.80;99.90
37642;DHT22;23486;51.956;5.888;2023-03-19T08:24:14;11.80;99.90
37642;DHT22;23486;51.956;5.888;2023-03-19T08:26:39;11.80;99.90
37642;DHT22;23486;51.956;5.888;2023-03-19T08:29:05;11.90;99.90
37642;DHT22;23486;51.956;5.888;2023-03-19T08:31:31;11.90;99.90
37642;DHT22;23486;51.956;5.888;2023-03-19T08:33:57;12.00;99.90
37642;DHT22;23486;51.956;5.888;2023-03-19T08:36:24;11.90;99.90
37642;DHT22;23486;51.956;5.888;2023-03-19T08:38:51;12.00;99.90
37642;DHT22;23486;51.956;5.888;2023-03-19T08:41:19;12.00;99.90
37642;DHT22;23486;51.956;5.888;2023-03-19T08:43:45;12.00;99.90
37642;DHT22;23486;51.956;5.888;2023-03-19T08:46:11;12.00;99.90
37642;DHT22;23486;51.956;5.888;2023-03-19T08:48:37;12.00;99.90
37642;DHT22;23486;51.956;5.888;2023-03-19T08:51:03;12.00;99.90
37642;DHT22;23486;51.956;5.888;2023-03-19T08:53:37;12.10;99.90
37642;DHT22;23486;51.956;5.888;2023-03-19T08:56:08;12.10;99.90
37642;DHT22;23486;51.956;5.888;2023-03-19T08:58:33;12.10;99.90
37642;DHT22;23486;51.956;5.888;2023-03-19T09:01:05;12.10;99.90
37642;DHT22;23486;51.956;5.888;2023-03-19T09:03:37;12.00;99.90
37642;DHT22;23486;51.956;5.888;2023-03-19T09:06:05;12.10;99.90
37642;DHT22;23486;51.956;5.888;2023-03-19T09:08:32;12.10;99.90
37642;DHT22;23486;51.956;5.888;2023-03-19T09:11:00;12.20;99.90
37642;DHT22;23486;51.956;5.888;2023-03-19T09:13:26;12.30;99.90
37642;DHT22;23486;51.956;5.888;2023-03-19T09:15:52;12.40;99.90
37642;DHT22;23486;51.956;5.888;2023-03-19T09:18:21;12.40;99.90
37642;DHT22;23486;51.956;5.888;2023-03-19T09:20:49;12.50;99.90
37642;DHT22;23486;51.956;5.888;2023-03-19T09:23:14;12.50;99.90
37642;DHT22;23486;51.956;5.888;2023-03-19T09:25:40;12.50;99.90
37642;DHT22;23486;51.956;5.888;2023-03-19T09:28:06;12.50;99.90
37642;DHT22;23486;51.956;5.888;2023-03-19T09:30:31;12.40;99.90
37642;DHT22;23486;51.956;5.888;2023-03-19T09:32:57;12.40;99.90
37642;DHT22;23486;51.956;5.888;2023-03-19T09:35:23;12.40;99.90
37642;DHT22;23486;51.956;5.888;2023-03-19T09:37:49;12.60;99.90
37642;DHT22;23486;51.956;5.888;2023-03-19T09:40:25;12.70;99.90
37642;DHT22;23486;51.956;5.888;2023-03-19T09:45:49;12.90;99.90
37642;DHT22;23486;51.956;5.888;2023-03-19T09:48:39;12.90;99.90
37642;DHT22;23486;51.956;5.888;2023-03-19T09:51:20;12.90;99.90
37642;DHT22;23486;51.956;5.888;2023-03-19T09:53:54;12.80;99.90
37642;DHT22;23486;51.956;5.888;2023-03-19T09:56:21;12.70;99.90
37642;DHT22;23486;51.956;5.888;2023-03-19T09:58:47;12.60;99.90
37642;DHT22;23486;51.956;5.888;2023-03-19T10:01:35;12.60;99.90
37642;DHT22;23486;51.956;5.888;2023-03-19T10:06:44;12.60;99.90
37642;DHT22;23486;51.956;5.888;2023-03-19T10:09:43;12.60;99.90
37642;DHT22;23486;51.956;5.888;2023-03-19T10:17:55;13.00;99.90
37642;DHT22;23486;51.956;5.888;2023-03-19T10:20:35;13.10;99.90
37642;DHT22;23486;51.956;5.888;2023-03-19T10:23:26;13.30;99.90
37642;DHT22;23486;51.956;5.888;2023-03-19T10:25:57;13.30;99.90
37642;DHT22;23486;51.956;5.888;2023-03-19T10:28:26;13.40;99.90
37642;DHT22;23486;51.956;5.888;2023-03-19T10:34:02;13.40;99.90
37642;DHT22;23486;51.956;5.888;2023-03-19T10:36:34;13.50;99.90
37642;DHT22;23486;51.956;5.888;2023-03-19T10:39:00;13.60;99.90
37642;DHT22;23486;51.956;5.888;2023-03-19T10:41:45;13.70;99.90
37642;DHT22;23486;51.956;5.888;2023-03-19T10:44:41;13.90;99.90
37642;DHT22;23486;51.956;5.888;2023-03-19T10:47:13;14.10;99.90
37642;DHT22;23486;51.956;5.888;2023-03-19T10:49:39;14.10;99.90
37642;DHT22;23486;51.956;5.888;2023-03-19T10:54:46;13.90;99.90
37642;DHT22;23486;51.956;5.888;2023-03-19T10:57:23;13.90;99.90
37642;DHT22;23486;51.956;5.888;2023-03-19T10:59:49;13.90;99.90
37642;DHT22;23486;51.956;5.888;2023-03-19T11:02:20;13.90;99.90
37642;DHT22;23486;51.956;5.888;2023-03-19T11:04:48;13.90;99.90
37642;DHT22;23486;51.956;5.888;2023-03-19T11:07:18;13.90;99.90
37642;DHT22;23486;51.956;5.888;2023-03-19T11:09:48;13.90;99.90
37642;DHT22;23486;51.956;5.888;2023-03-19T11:12:21;13.80;99.90
37642;DHT22;23486;51.956;5.888;2023-03-19T11:14:50;13.80;99.90
37642;DHT22;23486;51.956;5.888;2023-03-19T11:17:37;13.90;99.90
37642;DHT22;23486;51.956;5.888;2023-03-19T11:22:37;14.00;99.90
37642;DHT22;23486;51.956;5.888;2023-03-19T11:25:23;14.00;99.90
37642;DHT22;23486;51.956;5.888;2023-03-19T11:28:15;13.90;99.90
37642;DHT22;23486;51.956;5.888;2023-03-19T11:44:30;14.60;99.90
37642;DHT22;23486;51.956;5.888;2023-03-19T11:49:49;14.90;99.90
37642;DHT22;23486;51.956;5.888;2023-03-19T11:55:03;14.90;99.90
37642;DHT22;23486;51.956;5.888;2023-03-19T11:58:03;14.90;99.90
37642;DHT22;23486;51.956;5.888;2023-03-19T12:00:52;14.90;99.90
37642;DHT22;23486;51.956;5.888;2023-03-19T12:05:59;15.10;99.90
37642;DHT22;23486;51.956;5.888;2023-03-19T12:09:02;15.10;99.90
37642;DHT22;23486;51.956;5.888;2023-03-19T12:11:42;15.10;99.90
37642;DHT22;23486;51.956;5.888;2023-03-19T12:14:40;15.10;99.90
37642;DHT22;23486;51.956;5.888;2023-03-19T12:20:28;15.10;99.90
37642;DHT22;23486;51.956;5.888;2023-03-19T12:28:45;14.60;99.90
37642;DHT22;23486;51.956;5.888;2023-03-19T12:31:23;14.30;99.90
37642;DHT22;23486;51.956;5.888;2023-03-19T12:36:32;14.40;99.90
37642;DHT22;23486;51.956;5.888;2023-03-19T12:39:05;14.50;99.90
37642;DHT22;23486;51.956;5.888;2023-03-19T12:41:39;14.50;99.90
37642;DHT22;23486;51.956;5.888;2023-03-19T12:44:08;14.60;99.90
37642;DHT22;23486;51.956;5.888;2023-03-19T12:46:48;14.50;99.90
37642;DHT22;23486;51.956;5.888;2023-03-19T12:49:40;14.50;99.90
37642;DHT22;23486;51.956;5.888;2023-03-19T12:52:16;14.60;99.90
37642;DHT22;23486;51.956;5.888;2023-03-19T12:54:49;14.70;99.90
37642;DHT22;23486;51.956;5.888;2023-03-19T13:00:09;14.70;99.90
37642;DHT22;23486;51.956;5.888;2023-03-19T13:02:49;14.70;99.90
37642;DHT22;23486;51.956;5.888;2023-03-19T13:05:33;14.70;99.90
37642;DHT22;23486;51.956;5.888;2023-03-19T13:10:28;15.00;99.90
37642;DHT22;23486;51.956;5.888;2023-03-19T13:12:55;15.00;99.90
37642;DHT22;23486;51.956;5.888;2023-03-19T13:15:42;15.10;99.90
37642;DHT22;23486;51.956;5.888;2023-03-19T13:18:20;15.30;99.90
37642;DHT22;23486;51.956;5.888;2023-03-19T13:23:36;15.70;99.90
37642;DHT22;23486;51.956;5.888;2023-03-19T13:26:05;15.90;99.90
37642;DHT22;23486;51.956;5.888;2023-03-19T13:28:37;15.90;99.90
37642;DHT22;23486;51.956;5.888;2023-03-19T13:31:23;15.90;99.90
37642;DHT22;23486;51.956;5.888;2023-03-19T13:34:39;15.90;99.90
37642;DHT22;23486;51.956;5.888;2023-03-19T13:36:38;15.90;99.90
37642;DHT22;23486;51.956;5.888;2023-03-19T13:39:14;15.80;99.90
37642;DHT22;23486;51.956;5.888;2023-03-19T13:44:28;15.80;99.90
37642;DHT22;23486;51.956;5.888;2023-03-19T13:47:01;15.80;99.90
37642;DHT22;23486;51.956;5.888;2023-03-19T13:49:34;15.70;99.90
37642;DHT22;23486;51.956;5.888;2023-03-19T13:54:43;15.50;99.90
37642;DHT22;23486;51.956;5.888;2023-03-19T13:59:41;15.40;99.90
37642;DHT22;23486;51.956;5.888;2023-03-19T14:07:17;15.20;99.90
37642;DHT22;23486;51.956;5.888;2023-03-19T14:12:48;15.30;99.90
37642;DHT22;23486;51.956;5.888;2023-03-19T14:15:21;15.30;99.90
37642;DHT22;23486;51.956;5.888;2023-03-19T14:18:02;15.20;99.90
37642;DHT22;23486;51.956;5.888;2023-03-19T14:20:43;15.20;99.90
37642;DHT22;23486;51.956;5.888;2023-03-19T14:23:27;15.30;99.90
37642;DHT22;23486;51.956;5.888;2023-03-19T14:26:00;15.30;99.90
37642;DHT22;23486;51.956;5.888;2023-03-19T14:31:42;15.10;99.90
37642;DHT22;23486;51.956;5.888;2023-03-19T14:36:39;15.10;99.90
37642;DHT22;23486;51.956;5.888;2023-03-19T14:41:49;15.10;99.90
37642;DHT22;23486;51.956;5.888;2023-03-19T14:47:25;15.10;99.90
37642;DHT22;23486;51.956;5.888;2023-03-19T14:52:44;15.40;99.90
37642;DHT22;23486;51.956;5.888;2023-03-19T14:55:14;15.40;99.90
37642;DHT22;23486;51.956;5.888;2023-03-19T14:57:40;15.40;99.90
37642;DHT22;23486;51.956;5.888;2023-03-19T15:00:16;15.40;99.90
37642;DHT22;23486;51.956;5.888;2023-03-19T15:02:50;15.50;99.90
37642;DHT22;23486;51.956;5.888;2023-03-19T15:05:32;15.50;99.90
37642;DHT22;23486;51.956;5.888;2023-03-19T15:08:08;15.50;99.90
37642;DHT22;23486;51.956;5.888;2023-03-19T15:10:47;15.50;99.90
37642;DHT22;23486;51.956;5.888;2023-03-19T15:18:44;15.70;99.90
37642;DHT22;23486;51.956;5.888;2023-03-19T15:21:10;15.70;99.90
37642;DHT22;23486;51.956;5.888;2023-03-19T15:23:37;15.60;99.90
37642;DHT22;23486;51.956;5.888;2023-03-19T15:26:07;15.60;99.90
37642;DHT22;23486;51.956;5.888;2023-03-19T15:28:48;15.50;99.90
37642;DHT22;23486;51.956;5.888;2023-03-19T15:31:17;15.40;99.90
37642;DHT22;23486;51.956;5.888;2023-03-19T15:33:43;15.40;99.90
37642;DHT22;23486;51.956;5.888;2023-03-19T15:36:20;15.30;99.90
37642;DHT22;23486;51.956;5.888;2023-03-19T15:38:53;15.10;99.90
37642;DHT22;23486;51.956;5.888;2023-03-19T15:41:23;14.90;99.90
37642;DHT22;23486;51.956;5.888;2023-03-19T15:43:52;14.90;99.90
37642;DHT22;23486;51.956;5.888;2023-03-19T15:46:21;14.90;99.90
37642;DHT22;23486;51.956;5.888;2023-03-19T15:48:54;15.00;99.90
37642;DHT22;23486;51.956;5.888;2023-03-19T15:51:23;15.20;99.90
37642;DHT22;23486;51.956;5.888;2023-03-19T15:53:50;15.30;99.90
37642;DHT22;23486;51.956;5.888;2023-03-19T15:56:20;15.20;99.90
37642;DHT22;23486;51.956;5.888;2023-03-19T15:58:51;15.10;99.90
37642;DHT22;23486;51.956;5.888;2023-03-19T16:01:19;14.90;99.90
37642;DHT22;23486;51.956;5.888;2023-03-19T16:03:52;14.70;99.90
37642;DHT22;23486;51.956;5.888;2023-03-19T16:06:27;14.60;99.90
37642;DHT22;23486;51.956;5.888;2023-03-19T16:08:55;14.60;99.90
37642;DHT22;23486;51.956;5.888;2023-03-19T16:11:37;14.60;99.90
37642;DHT22;23486;51.956;5.888;2023-03-19T16:14:30;14.70;99.90
37642;DHT22;23486;51.956;5.888;2023-03-19T16:17:14;14.60;99.90
37642;DHT22;23486;51.956;5.888;2023-03-19T16:22:16;14.40;99.90
37642;DHT22;23486;51.956;5.888;2023-03-19T16:24:44;14.30;99.90
37642;DHT22;23486;51.956;5.888;2023-03-19T16:27:16;14.30;99.90
37642;DHT22;23486;51.956;5.888;2023-03-19T16:29:47;14.30;99.90
37642;DHT22;23486;51.956;5.888;2023-03-19T16:32:25;14.30;99.90
37642;DHT22;23486;51.956;5.888;2023-03-19T16:35:11;14.30;99.90
37642;DHT22;23486;51.956;5.888;2023-03-19T16:37:53;14.30;99.90
37642;DHT22;23486;51.956;5.888;2023-03-19T16:42:49;14.20;99.90
37642;DHT22;23486;51.956;5.888;2023-03-19T16:45:33;14.20;99.90
37642;DHT22;23486;51.956;5.888;2023-03-19T16:48:01;14.30;99.90
37642;DHT22;23486;51.956;5.888;2023-03-19T16:50:32;14.40;99.90
37642;DHT22;23486;51.956;5.888;2023-03-19T16:53:00;14.40;99.90
37642;DHT22;23486;51.956;5.888;2023-03-19T16:55:33;14.30;99.90
37642;DHT22;23486;51.956;5.888;2023-03-19T16:58:02;14.20;99.90
37642;DHT22;23486;51.956;5.888;2023-03-19T17:00:33;14.10;99.90
37642;DHT22;23486;51.956;5.888;2023-03-19T17:02:59;14.00;99.90
37642;DHT22;23486;51.956;5.888;2023-03-19T17:05:26;13.80;99.90
37642;DHT22;23486;51.956;5.888;2023-03-19T17:07:52;13.70;99.90
37642;DHT22;23486;51.956;5.888;2023-03-19T17:10:22;13.70;99.90
37642;DHT22;23486;51.956;5.888;2023-03-19T17:12:56;13.60;99.90
37642;DHT22;23486;51.956;5.888;2023-03-19T17:15:30;13.60;99.90
37642;DHT22;23486;51.956;5.888;2023-03-19T17:17:56;13.50;99.90
37642;DHT22;23486;51.956;5.888;2023-03-19T17:20:56;13.40;99.90
37642;DHT22;23486;51.956;5.888;2023-03-19T17:23:26;13.40;99.90
37642;DHT22;23486;51.956;5.888;2023-03-19T17:25:53;13.20;99.90
37642;DHT22;23486;51.956;5.888;2023-03-19T17:28:18;13.20;99.90
37642;DHT22;23486;51.956;5.888;2023-03-19T17:30:45;13.10;99.90
37642;DHT22;23486;51.956;5.888;2023-03-19T17:33:28;13.00;99.90
37642;DHT22;23486;51.956;5.888;2023-03-19T17:35:55;13.00;99.90